createdAt,value
2022-10-06T00:01:06.179Z,1.00
2022-10-06T00:03:33.289Z,1.00
2022-10-06T00:06:04.304Z,99.90
2022-10-06T00:08:32.482Z,99.90
2022-10-06T00:10:59.490Z,99.90
2022-10-06T00:13:27.636Z,99.90
2022-10-06T00:15:55.083Z,99.90
2022-10-06T00:18:22.168Z,1.00
2022-10-06T00:21:00.680Z,1.00
2022-10-06T00:23:28.908Z,1.00
2022-10-06T00:25:55.900Z,1.00
2022-10-06T00:28:22.884Z,1.00
2022-10-06T00:30:51.273Z,1.00
2022-10-06T00:33:18.210Z,99.90
2022-10-06T00:35:47.354Z,99.90
2022-10-06T00:38:16.444Z,1.00
2022-10-06T00:40:50.808Z,99.90
2022-10-06T00:43:42.185Z,1.00
2022-10-06T00:46:13.677Z,1.00
2022-10-06T00:48:41.603Z,1.00
2022-10-06T00:51:08.797Z,1.00
2022-10-06T00:53:36.209Z,1.00
2022-10-06T00:56:03.145Z,1.00
2022-10-06T00:58:31.720Z,1.00
2022-10-06T01:00:59.969Z,99.90
2022-10-06T01:03:27.268Z,12.40
2022-10-06T01:05:56.004Z,1.00
2022-10-06T01:08:23.882Z,1.00
2022-10-06T01:10:50.822Z,1.00
2022-10-06T01:13:19.008Z,1.00
2022-10-06T01:16:10.715Z,1.00
2022-10-06T01:18:41.261Z,1.00
2022-10-06T01:21:30.040Z,1.00
2022-10-06T01:23:57.305Z,1.00
2022-10-06T01:26:27.134Z,1.00
2022-10-06T01:28:54.188Z,1.00
2022-10-06T01:31:21.540Z,1.00
2022-10-06T01:33:53.460Z,1.00
2022-10-06T01:36:21.193Z,1.00
2022-10-06T01:38:50.544Z,1.00
2022-10-06T01:41:17.505Z,1.00
2022-10-06T01:43:44.563Z,1.00
2022-10-06T01:46:11.574Z,1.00
2022-10-06T01:48:40.117Z,1.00
2022-10-06T01:51:09.235Z,1.00
2022-10-06T01:53:36.872Z,1.00
2022-10-06T01:56:04.882Z,13.20
2022-10-06T01:58:32.319Z,1.00
2022-10-06T02:01:04.672Z,1.00
2022-10-06T02:03:33.342Z,24.20
2022-10-06T02:06:00.275Z,1.30
2022-10-06T02:08:28.459Z,2.50
2022-10-06T02:10:57.682Z,99.90
2022-10-06T02:13:27.953Z,99.90
2022-10-06T02:15:58.675Z,99.90
2022-10-06T02:18:26.842Z,1.20
2022-10-06T02:20:54.893Z,1.00
2022-10-06T02:23:21.778Z,1.00
2022-10-06T02:25:48.777Z,1.00
2022-10-06T02:28:16.854Z,1.00
2022-10-06T02:30:44.352Z,94.50
2022-10-06T02:33:11.524Z,51.80
2022-10-06T02:35:38.590Z,1.00
2022-10-06T02:38:05.783Z,1.00
2022-10-06T02:40:32.891Z,1.00
2022-10-06T02:42:59.870Z,1.00
2022-10-06T02:45:27.928Z,1.00
2022-10-06T02:47:55.320Z,1.00
2022-10-06T02:50:22.374Z,1.00
2022-10-06T02:52:49.341Z,1.00
2022-10-06T02:55:16.419Z,1.00
2022-10-06T02:57:43.314Z,1.00
2022-10-06T03:00:11.622Z,1.00
2022-10-06T03:02:38.689Z,57.50
2022-10-06T03:05:05.964Z,99.90
2022-10-06T03:07:33.932Z,99.90
2022-10-06T03:10:00.821Z,56.40
2022-10-06T03:12:28.136Z,74.70
2022-10-06T03:14:55.431Z,99.90
2022-10-06T03:17:22.419Z,99.90
2022-10-06T03:19:56.991Z,1.00
2022-10-06T03:22:24.744Z,1.00
2022-10-06T03:24:56.874Z,1.00
2022-10-06T03:27:24.777Z,1.00
2022-10-06T03:29:55.111Z,1.00
2022-10-06T03:32:24.314Z,1.00
2022-10-06T03:34:53.258Z,1.00
2022-10-06T03:37:20.461Z,1.00
2022-10-06T03:39:47.668Z,1.00
2022-10-06T03:42:15.023Z,1.00
2022-10-06T03:44:42.180Z,1.00
2022-10-06T03:47:11.194Z,1.00
2022-10-06T03:49:41.632Z,1.00
2022-10-06T03:52:09.127Z,34.90
2022-10-06T03:54:38.015Z,99.90
2022-10-06T03:57:04.963Z,99.90
2022-10-06T03:59:34.277Z,99.90
2022-10-06T04:02:03.398Z,99.90
2022-10-06T04:04:35.319Z,99.90
2022-10-06T04:07:07.391Z,1.00
2022-10-06T04:09:34.399Z,1.00
2022-10-06T04:12:01.959Z,1.00
2022-10-06T04:14:32.116Z,1.00
2022-10-06T04:17:01.524Z,1.00
2022-10-06T04:19:32.127Z,1.00
2022-10-06T04:21:59.491Z,1.00
2022-10-06T04:24:26.790Z,99.90
2022-10-06T04:27:13.801Z,99.90
2022-10-06T04:29:41.221Z,99.90
2022-10-06T04:32:08.646Z,99.90
2022-10-06T04:34:37.346Z,99.90
2022-10-06T04:37:04.408Z,10.80
2022-10-06T04:39:31.692Z,99.90
2022-10-06T04:41:58.966Z,99.90
2022-10-06T04:44:29.237Z,99.90
2022-10-06T04:47:00.510Z,99.90
2022-10-06T04:49:27.634Z,99.90
2022-10-06T04:51:56.418Z,99.90
2022-10-06T04:54:23.747Z,99.90
2022-10-06T04:56:56.691Z,99.90
2022-10-06T04:59:45.059Z,99.90
2022-10-06T05:02:13.940Z,99.90
2022-10-06T05:04:42.383Z,99.90
2022-10-06T05:07:10.124Z,99.90
2022-10-06T05:09:37.281Z,1.00
2022-10-06T05:12:04.597Z,99.90
2022-10-06T05:14:33.346Z,1.00
2022-10-06T05:17:00.884Z,1.00
2022-10-06T05:19:29.472Z,1.00
2022-10-06T05:21:57.118Z,1.00
2022-10-06T05:24:27.159Z,1.00
2022-10-06T05:26:57.238Z,1.00
2022-10-06T05:29:26.460Z,1.00
2022-10-06T05:31:53.779Z,1.00
2022-10-06T05:34:22.083Z,1.00
2022-10-06T05:36:49.214Z,1.00
2022-10-06T05:39:16.354Z,1.00
2022-10-06T05:41:47.379Z,1.00
2022-10-06T05:44:14.643Z,1.00
2022-10-06T05:46:43.375Z,1.00
2022-10-06T05:49:12.356Z,1.00
2022-10-06T05:51:44.136Z,1.00
2022-10-06T05:54:16.290Z,1.00
2022-10-06T05:56:43.426Z,1.00
2022-10-06T05:59:11.093Z,99.90
2022-10-06T06:01:42.660Z,1.00
2022-10-06T06:04:32.453Z,1.00
2022-10-06T06:07:00.348Z,1.00
2022-10-06T06:09:29.034Z,1.00
2022-10-06T06:12:00.533Z,99.90
2022-10-06T06:15:06.591Z,62.20
2022-10-06T06:17:39.430Z,1.00
2022-10-06T06:20:07.444Z,1.00
2022-10-06T06:22:35.862Z,1.00
2022-10-06T06:25:04.508Z,1.00
2022-10-06T06:27:31.458Z,1.00
2022-10-06T06:29:59.033Z,1.00
2022-10-06T06:32:27.920Z,1.00
2022-10-06T06:34:55.239Z,1.00
2022-10-06T06:37:22.176Z,1.00
2022-10-06T06:39:49.372Z,1.00
2022-10-06T06:42:17.157Z,1.00
2022-10-06T06:45:16.031Z,1.00
2022-10-06T06:48:03.366Z,1.00
2022-10-06T06:50:32.475Z,1.00
2022-10-06T06:53:02.456Z,1.00
2022-10-06T06:55:30.624Z,1.00
2022-10-06T06:57:57.560Z,1.00
2022-10-06T07:00:25.151Z,1.00
2022-10-06T07:03:00.842Z,1.00
2022-10-06T07:05:30.464Z,1.00
2022-10-06T07:07:57.562Z,1.00
2022-10-06T07:10:27.574Z,1.00
2022-10-06T07:12:54.758Z,1.00
2022-10-06T07:15:40.296Z,1.00
2022-10-06T07:18:29.187Z,1.00
2022-10-06T07:21:14.939Z,1.00
2022-10-06T07:24:00.377Z,1.00
2022-10-06T07:26:31.030Z,1.00
2022-10-06T07:29:01.811Z,1.00
2022-10-06T07:31:36.451Z,1.00
2022-10-06T07:34:06.624Z,1.00
2022-10-06T07:36:33.964Z,1.00
2022-10-06T07:39:01.015Z,1.00
2022-10-06T07:41:30.780Z,1.00
2022-10-06T07:44:04.574Z,1.00
2022-10-06T07:46:34.444Z,1.00
2022-10-06T07:49:24.132Z,1.00
2022-10-06T07:51:51.546Z,1.00
2022-10-06T07:54:18.623Z,1.00
2022-10-06T07:56:45.565Z,1.00
2022-10-06T07:59:12.863Z,1.00
2022-10-06T08:01:40.362Z,1.00
2022-10-06T08:04:07.441Z,1.00
2022-10-06T08:06:34.841Z,1.00
2022-10-06T08:09:02.241Z,1.00
2022-10-06T08:11:29.232Z,1.00
2022-10-06T08:13:56.213Z,1.00
2022-10-06T08:16:30.133Z,1.00
2022-10-06T08:18:59.412Z,1.00
2022-10-06T08:21:31.321Z,1.00
2022-10-06T08:23:59.315Z,1.00
2022-10-06T08:26:27.395Z,1.00
2022-10-06T08:29:02.925Z,1.00
2022-10-06T08:31:31.057Z,1.00
2022-10-06T08:33:58.272Z,1.00
2022-10-06T08:36:30.906Z,1.00
2022-10-06T08:39:00.106Z,1.00
2022-10-06T08:41:36.490Z,1.00
2022-10-06T08:44:23.801Z,1.00
2022-10-06T08:46:56.664Z,1.00
2022-10-06T08:49:27.296Z,1.00
2022-10-06T08:52:13.542Z,1.00
2022-10-06T08:55:16.143Z,1.00
2022-10-06T08:57:58.685Z,1.00
2022-10-06T09:00:25.675Z,1.00
2022-10-06T09:02:56.438Z,1.00
2022-10-06T09:05:26.431Z,1.00
2022-10-06T09:08:04.967Z,1.00
2022-10-06T09:10:43.208Z,1.00
2022-10-06T09:13:21.714Z,1.00
2022-10-06T09:16:09.012Z,1.00
2022-10-06T09:19:21.024Z,1.00
2022-10-06T09:21:50.027Z,1.00
2022-10-06T09:24:20.302Z,1.00
2022-10-06T09:26:50.779Z,1.00
2022-10-06T09:29:17.826Z,1.00
2022-10-06T09:31:50.888Z,1.00
2022-10-06T09:34:34.933Z,1.00
2022-10-06T09:37:09.271Z,1.00
2022-10-06T09:39:38.666Z,1.00
2022-10-06T09:42:24.461Z,1.00
2022-10-06T09:44:51.411Z,1.00
2022-10-06T09:47:33.395Z,1.00
2022-10-06T09:50:20.310Z,1.00
2022-10-06T09:53:03.382Z,1.00
2022-10-06T09:55:39.569Z,1.00
2022-10-06T09:58:18.339Z,1.00
2022-10-06T10:01:03.416Z,1.00
2022-10-06T10:04:18.878Z,1.00
2022-10-06T10:06:41.750Z,1.00
2022-10-06T10:09:24.292Z,1.00
2022-10-06T10:12:31.271Z,1.00
2022-10-06T10:15:01.957Z,1.00
2022-10-06T10:17:34.771Z,1.00
2022-10-06T10:20:03.027Z,1.00
2022-10-06T10:22:40.027Z,1.00
2022-10-06T10:25:44.665Z,1.00
2022-10-06T10:28:17.378Z,1.00
2022-10-06T10:31:14.233Z,1.00
2022-10-06T10:34:29.983Z,1.00
2022-10-06T10:37:06.106Z,1.00
2022-10-06T10:39:54.815Z,1.00
2022-10-06T10:43:01.103Z,1.00
2022-10-06T10:45:36.104Z,1.00
2022-10-06T10:49:00.679Z,1.00
2022-10-06T10:51:42.668Z,1.00
2022-10-06T10:54:19.617Z,1.00
2022-10-06T10:56:49.413Z,1.00
2022-10-06T10:59:39.251Z,1.00
2022-10-06T11:02:21.482Z,1.00
2022-10-06T11:04:56.603Z,1.00
2022-10-06T11:07:44.798Z,1.00
2022-10-06T11:10:23.096Z,1.00
2022-10-06T11:13:19.116Z,1.00
2022-10-06T11:15:57.851Z,1.00
2022-10-06T11:18:47.000Z,1.00
2022-10-06T11:21:26.374Z,1.00
2022-10-06T11:24:15.587Z,1.00
2022-10-06T11:27:24.587Z,1.00
2022-10-06T11:30:06.693Z,1.00
2022-10-06T11:32:52.354Z,1.00
2022-10-06T11:35:23.097Z,1.00
2022-10-06T11:37:59.758Z,1.00
2022-10-06T11:40:35.574Z,1.00
2022-10-06T11:43:27.808Z,1.00
2022-10-06T11:46:04.601Z,1.00
2022-10-06T11:48:33.009Z,1.00
2022-10-06T11:51:26.238Z,1.00
2022-10-06T11:53:55.557Z,1.00
2022-10-06T11:56:24.207Z,1.00
2022-10-06T11:58:51.041Z,1.00
2022-10-06T12:01:35.249Z,1.00
2022-10-06T12:04:05.473Z,1.00
2022-10-06T12:06:44.903Z,1.00
2022-10-06T12:09:31.143Z,1.00
2022-10-06T12:12:19.418Z,1.00
2022-10-06T12:18:07.027Z,1.00
2022-10-06T12:21:09.371Z,1.00
2022-10-06T12:23:58.074Z,1.00
2022-10-06T12:26:40.063Z,1.00
2022-10-06T12:29:26.384Z,1.00
2022-10-06T12:32:13.079Z,1.00
2022-10-06T12:34:40.029Z,1.00
2022-10-06T12:37:28.990Z,1.00
2022-10-06T12:40:33.456Z,1.00
2022-10-06T12:43:18.258Z,1.00
2022-10-06T12:45:57.060Z,1.00
2022-10-06T12:48:40.382Z,1.00
2022-10-06T12:51:07.379Z,1.00
2022-10-06T12:53:53.804Z,1.00
2022-10-06T12:56:28.638Z,1.00
2022-10-06T12:58:56.078Z,1.00
2022-10-06T13:01:24.083Z,1.00
2022-10-06T13:03:52.592Z,1.00
2022-10-06T13:06:23.398Z,1.00
2022-10-06T13:09:06.044Z,1.00
2022-10-06T13:11:33.062Z,1.00
2022-10-06T13:14:16.231Z,1.00
2022-10-06T13:16:46.754Z,1.00
2022-10-06T13:19:27.068Z,1.00
2022-10-06T13:21:54.983Z,1.00
2022-10-06T13:24:26.719Z,1.00
2022-10-06T13:26:54.543Z,1.00
2022-10-06T13:29:25.986Z,1.00
2022-10-06T13:31:55.096Z,1.00
2022-10-06T13:34:33.184Z,1.00
2022-10-06T13:37:01.278Z,1.00
2022-10-06T13:39:32.272Z,1.00
2022-10-06T13:42:17.718Z,1.00
2022-10-06T13:44:44.612Z,1.00
2022-10-06T13:47:18.704Z,1.00
2022-10-06T13:49:51.554Z,1.00
2022-10-06T13:52:24.633Z,1.00
2022-10-06T13:54:58.895Z,1.00
2022-10-06T13:57:45.948Z,1.00
2022-10-06T14:00:15.883Z,1.00
2022-10-06T14:02:45.381Z,1.00
2022-10-06T14:05:41.410Z,1.00
2022-10-06T14:08:11.304Z,1.00
2022-10-06T14:10:41.211Z,1.00
2022-10-06T14:13:26.991Z,1.00
2022-10-06T14:15:59.067Z,1.00
2022-10-06T14:18:42.849Z,1.00
2022-10-06T14:21:39.796Z,1.00
2022-10-06T14:24:15.780Z,1.00
2022-10-06T14:26:44.455Z,1.00
2022-10-06T14:29:13.492Z,1.00
2022-10-06T14:31:40.423Z,1.00
2022-10-06T14:34:14.397Z,1.00
2022-10-06T14:36:43.805Z,1.00
2022-10-06T14:39:13.358Z,1.00
2022-10-06T14:41:40.800Z,1.00
2022-10-06T14:44:11.459Z,1.00
2022-10-06T14:46:40.158Z,1.00
2022-10-06T14:49:09.716Z,1.00
2022-10-06T14:51:38.447Z,1.00
2022-10-06T14:54:07.466Z,1.00
2022-10-06T14:56:37.338Z,1.00
2022-10-06T14:59:06.467Z,1.00
2022-10-06T15:01:35.424Z,1.00
2022-10-06T15:04:05.420Z,1.00
2022-10-06T15:06:50.853Z,1.00
2022-10-06T15:09:18.096Z,1.00
2022-10-06T15:11:45.338Z,1.00
2022-10-06T15:14:12.473Z,1.00
2022-10-06T15:16:42.239Z,1.00
2022-10-06T15:19:11.023Z,1.00
2022-10-06T15:21:45.108Z,1.00
2022-10-06T15:24:14.344Z,1.00
2022-10-06T15:27:00.375Z,1.00
2022-10-06T15:29:27.474Z,1.00
2022-10-06T15:31:55.226Z,1.00
2022-10-06T15:34:27.193Z,1.00
2022-10-06T15:36:55.434Z,1.00
2022-10-06T15:39:25.843Z,1.00
2022-10-06T15:41:53.319Z,1.00
2022-10-06T15:44:20.799Z,1.00
2022-10-06T15:46:56.995Z,1.00
2022-10-06T15:49:25.674Z,1.00
2022-10-06T15:51:58.265Z,1.00
2022-10-06T15:54:33.793Z,1.00
2022-10-06T15:57:03.589Z,1.00
2022-10-06T15:59:32.662Z,1.00
2022-10-06T16:02:03.832Z,1.00
2022-10-06T16:04:39.361Z,1.00
2022-10-06T16:07:10.219Z,1.00
2022-10-06T16:09:44.900Z,1.00
2022-10-06T16:12:16.231Z,1.00
2022-10-06T16:14:43.429Z,1.00
2022-10-06T16:17:11.957Z,1.00
2022-10-06T16:19:42.267Z,1.00
2022-10-06T16:22:13.531Z,1.00
2022-10-06T16:24:40.871Z,1.00
2022-10-06T16:27:14.774Z,1.00
2022-10-06T16:29:41.759Z,1.00
2022-10-06T16:32:09.080Z,1.00
2022-10-06T16:34:36.107Z,1.00
2022-10-06T16:37:03.056Z,1.00
2022-10-06T16:39:29.957Z,1.00
2022-10-06T16:41:56.860Z,1.00
2022-10-06T16:44:23.953Z,1.00
2022-10-06T16:46:50.948Z,1.00
2022-10-06T16:49:18.040Z,1.00
2022-10-06T16:51:48.166Z,1.00
2022-10-06T16:54:17.370Z,1.00
2022-10-06T16:56:51.748Z,1.00
2022-10-06T16:59:23.546Z,1.00
2022-10-06T17:01:50.845Z,1.00
2022-10-06T17:04:23.227Z,1.00
2022-10-06T17:06:55.338Z,1.00
2022-10-06T17:09:24.560Z,1.00
2022-10-06T17:11:57.484Z,1.00
2022-10-06T17:14:25.177Z,1.00
2022-10-06T17:16:53.826Z,1.00
2022-10-06T17:19:22.787Z,1.00
2022-10-06T17:21:55.710Z,1.00
2022-10-06T17:24:28.012Z,1.00
2022-10-06T17:26:55.969Z,1.00
2022-10-06T17:29:23.621Z,1.00
2022-10-06T17:31:59.419Z,1.00
2022-10-06T17:34:31.676Z,1.00
2022-10-06T17:36:59.363Z,1.00
2022-10-06T17:39:26.303Z,1.00
2022-10-06T17:41:54.059Z,1.00
2022-10-06T17:44:24.253Z,1.00
2022-10-06T17:46:53.876Z,1.00
2022-10-06T17:49:22.468Z,1.00
2022-10-06T17:51:50.459Z,1.00
2022-10-06T17:54:20.151Z,1.00
2022-10-06T17:56:49.422Z,1.00
2022-10-06T17:59:18.789Z,1.00
2022-10-06T18:01:45.968Z,1.00
2022-10-06T18:04:17.365Z,1.00
2022-10-06T18:06:46.220Z,1.00
2022-10-06T18:09:14.627Z,1.00
2022-10-06T18:11:44.230Z,1.00
2022-10-06T18:14:16.544Z,1.00
2022-10-06T18:16:46.042Z,1.00
2022-10-06T18:19:19.436Z,1.00
2022-10-06T18:21:47.930Z,1.00
2022-10-06T18:24:23.627Z,1.00
2022-10-06T18:26:53.265Z,1.00
2022-10-06T18:29:22.758Z,1.00
2022-10-06T18:31:51.617Z,1.00
2022-10-06T18:37:09.474Z,1.00
2022-10-06T18:39:36.339Z,1.00
2022-10-06T18:42:05.464Z,1.00
2022-10-06T18:44:50.815Z,1.00
2022-10-06T18:47:36.243Z,1.00
2022-10-06T18:50:03.396Z,1.00
2022-10-06T18:52:30.385Z,1.00
2022-10-06T18:54:57.314Z,1.00
2022-10-06T18:57:27.684Z,1.00
2022-10-06T18:59:55.414Z,1.00
2022-10-06T19:02:22.739Z,1.00
2022-10-06T19:04:50.003Z,1.00
2022-10-06T19:07:17.005Z,1.00
2022-10-06T19:09:46.753Z,1.00
2022-10-06T19:12:17.479Z,1.00
2022-10-06T19:14:47.773Z,1.00
2022-10-06T19:17:15.411Z,1.00
2022-10-06T19:19:55.371Z,1.00
2022-10-06T19:22:24.799Z,1.00
2022-10-06T19:24:52.319Z,1.00
2022-10-06T19:27:24.190Z,1.00
2022-10-06T19:29:56.749Z,1.00
2022-10-06T19:32:31.160Z,1.00
2022-10-06T19:34:58.770Z,1.00
2022-10-06T19:37:30.040Z,1.00
2022-10-06T19:39:57.106Z,1.00
2022-10-06T19:42:42.925Z,1.00
2022-10-06T19:45:12.061Z,1.00
2022-10-06T19:47:40.134Z,1.00
2022-10-06T19:50:12.242Z,1.00
2022-10-06T19:52:40.760Z,1.00
2022-10-06T19:55:07.970Z,1.00
2022-10-06T19:57:35.006Z,1.00
2022-10-06T20:00:01.958Z,1.00
2022-10-06T20:02:43.289Z,1.00
2022-10-06T20:05:16.116Z,1.00
2022-10-06T20:07:45.579Z,1.00
2022-10-06T20:10:13.305Z,1.00
2022-10-06T20:12:41.583Z,1.00
2022-10-06T20:15:09.852Z,1.00
2022-10-06T20:17:36.864Z,1.00
2022-10-06T20:20:04.335Z,1.00
2022-10-06T20:22:31.798Z,1.00
2022-10-06T20:24:58.945Z,1.00
2022-10-06T20:27:25.860Z,1.00
2022-10-06T20:29:53.782Z,1.00
2022-10-06T20:32:21.404Z,1.00
2022-10-06T20:34:48.365Z,1.00
2022-10-06T20:37:15.442Z,5.70
2022-10-06T20:40:00.790Z,99.90
2022-10-06T20:42:28.045Z,82.10
2022-10-06T20:44:55.137Z,99.90
2022-10-06T20:47:22.702Z,8.20
2022-10-06T20:49:55.297Z,2.40
2022-10-06T20:52:24.251Z,1.00
2022-10-06T20:54:51.336Z,1.00
2022-10-06T20:57:18.565Z,1.00
2022-10-06T20:59:46.243Z,1.00
2022-10-06T21:02:13.466Z,5.00
2022-10-06T21:04:43.619Z,2.80
2022-10-06T21:07:11.281Z,4.60
2022-10-06T21:09:41.577Z,3.00
2022-10-06T21:12:08.584Z,11.70
2022-10-06T21:14:37.709Z,13.40
2022-10-06T21:17:05.339Z,31.70
2022-10-06T21:19:37.880Z,37.20
2022-10-06T21:22:05.366Z,41.20
2022-10-06T21:24:32.281Z,47.70
2022-10-06T21:26:59.737Z,52.60
2022-10-06T21:29:27.327Z,86.70
2022-10-06T21:31:55.350Z,99.90
2022-10-06T21:34:22.240Z,99.90
2022-10-06T21:36:49.416Z,99.90
2022-10-06T21:39:16.473Z,93.90
2022-10-06T21:41:43.399Z,99.90
2022-10-06T21:44:14.609Z,99.90
2022-10-06T21:46:52.816Z,99.90
2022-10-06T21:49:24.444Z,99.90
2022-10-06T21:51:53.830Z,99.90
2022-10-06T21:54:21.926Z,99.90
2022-10-06T21:56:48.961Z,99.90
2022-10-06T21:59:16.252Z,99.90
2022-10-06T22:01:45.008Z,99.90
2022-10-06T22:04:14.335Z,99.90
2022-10-06T22:06:43.569Z,99.90
2022-10-06T22:09:14.471Z,99.90
2022-10-06T22:11:42.194Z,99.90
2022-10-06T22:14:14.714Z,99.90
2022-10-06T22:16:42.225Z,99.90
2022-10-06T22:19:11.681Z,99.90
2022-10-06T22:21:44.349Z,99.90
2022-10-06T22:24:21.484Z,99.90
2022-10-06T22:26:49.643Z,99.90
2022-10-06T22:29:18.609Z,99.90
2022-10-06T22:31:47.762Z,99.90
2022-10-06T22:34:17.560Z,99.90
2022-10-06T22:36:44.557Z,99.90
2022-10-06T22:39:11.692Z,99.90
2022-10-06T22:41:39.266Z,99.90
2022-10-06T22:44:06.335Z,99.90
2022-10-06T22:46:37.339Z,99.90
2022-10-06T22:49:05.785Z,99.90
2022-10-06T22:51:32.948Z,99.90
2022-10-06T22:54:00.436Z,99.90
2022-10-06T22:56:29.259Z,1.00
2022-10-06T22:58:59.589Z,1.00
2022-10-06T23:01:28.391Z,1.00
2022-10-06T23:03:55.817Z,1.00
2022-10-06T23:06:23.081Z,1.00
2022-10-06T23:08:50.162Z,1.00
2022-10-06T23:11:19.297Z,1.00
2022-10-06T23:13:48.368Z,1.00
2022-10-06T23:16:17.456Z,1.00
2022-10-06T23:18:45.289Z,1.00
2022-10-06T23:21:27.373Z,1.00
2022-10-06T23:23:58.377Z,1.00
2022-10-06T23:26:25.751Z,1.00
2022-10-06T23:28:58.579Z,1.00
2022-10-06T23:31:26.530Z,1.00
2022-10-06T23:33:54.921Z,1.00
2022-10-06T23:36:21.946Z,1.00
2022-10-06T23:38:49.103Z,1.00
2022-10-06T23:41:16.085Z,1.00
2022-10-06T23:43:43.598Z,1.00
2022-10-06T23:46:10.880Z,1.00
2022-10-06T23:48:38.187Z,1.00
2022-10-06T23:51:08.174Z,1.00
2022-10-06T23:53:35.595Z,1.00
2022-10-06T23:56:03.228Z,1.00
2022-10-06T23:58:30.213Z,1.00
